OIMC  Sarakhs  Airport

Sarakhs, Iran

Add Bookmark
Status IATA
Operational CKT
Latitude Longitude
36° 30' 4" N 61° 3' 53" E
36.501202 61.064899
Local (DST + 5) UTC (GMT + 4)
Mar 6, 2015 07:28 Mar 6, 2015 15:58
Sunrise-Sunset Local UTC
Begin Civil Twilight 05:22 01:52
Sunrise 05:48 02:18
Sunset 05:25 13:55
End Civil Twilight 05:51 14:21

Current Weather

METAR Observed MVFR
OIMC 061400Z 33018KT 9999 BKN025 OVC090 08/06 Q1026 Fri, Mar 6, 2015 @ 14:00 UTC
(1 Hour, 58 Minutes ago)
Marginal Visual Flight Rules
Wind Visibility Clouds Conditions
330° at 18 knots (33 kph) 10 km or more
  • Broken at 2,500' AGL
  • Overcast at 9,000' AGL
  • No significant weather
Temperatures Readings Precipitation
Current Temp 8°C (46°F)
Dewpoint 6°C (43°F)
Humidity 87%
Altimeter 30.3"Hg
Sea Level Pressure 1026mb
Field Elevation 944.88'
None Recorded

Additional weather within a 185.2km radius of OIMC

Map ICAO Location
OIMM 130.8km W (257°)
UTAM 144.5km N (030°)

24 Hour Weather History

Loading
-

24 Hour Weather Graphs

Loading
-

CheckWX.com is intended as a tool to help pilots better visualize weather data. It is not intended as a substitute for an official weather briefing obtained from a Flight Service Station. CheckWX.com does not meet the FAA requirements for an official pre-flight weather briefing. Therefore, it's important that pilots still call and obtain an official FSS pre-flight weather briefing.